createdAt,value
2018-09-28T00:02:20.627Z,12.13
2018-09-28T00:03:20.553Z,12.13
2018-09-28T00:04:20.506Z,12.16
2018-09-28T00:05:20.400Z,11.98
2018-09-28T00:06:20.313Z,12.08
2018-09-28T00:07:20.242Z,12.00
2018-09-28T00:08:20.167Z,11.97
2018-09-28T00:09:21.096Z,11.97
2018-09-28T00:10:19.983Z,11.93
2018-09-28T00:11:19.915Z,11.93
2018-09-28T00:12:19.823Z,11.88
2018-09-28T00:13:19.752Z,11.87
2018-09-28T00:14:19.667Z,11.82
2018-09-28T00:15:20.609Z,11.74
2018-09-28T00:16:19.494Z,11.77
2018-09-28T00:19:01.638Z,11.66
2018-09-28T00:20:02.604Z,11.67
2018-09-28T00:21:01.501Z,11.70
2018-09-28T00:22:01.393Z,11.67
2018-09-28T00:23:01.299Z,11.69
2018-09-28T00:25:43.154Z,11.66
2018-09-28T00:28:25.133Z,11.56
2018-09-28T00:29:25.085Z,11.49
2018-09-28T00:30:25.001Z,11.36
2018-09-28T00:31:24.944Z,11.38
2018-09-28T00:32:24.814Z,11.33
2018-09-28T00:33:24.741Z,11.31
2018-09-28T00:34:24.657Z,11.36
2018-09-28T00:35:24.577Z,11.35
2018-09-28T00:36:24.507Z,11.38
2018-09-28T00:39:06.634Z,11.31
2018-09-28T00:40:06.564Z,11.28
2018-09-28T00:41:06.507Z,11.28
2018-09-28T00:42:06.397Z,11.24
2018-09-28T00:43:06.323Z,11.20
2018-09-28T00:44:06.248Z,11.17
2018-09-28T00:45:06.156Z,11.24
2018-09-28T00:46:06.107Z,11.23
2018-09-28T00:47:05.994Z,11.28
2018-09-28T00:48:05.923Z,11.27
2018-09-28T00:49:05.821Z,11.21
2018-09-28T00:51:47.660Z,11.19
2018-09-28T00:54:29.642Z,11.21
2018-09-28T00:57:11.678Z,11.13
2018-09-28T00:58:11.569Z,11.09
2018-09-28T00:59:11.503Z,11.08
2018-09-28T01:00:11.409Z,11.11
2018-09-28T01:01:11.315Z,11.11
2018-09-28T01:02:11.279Z,11.08
2018-09-28T01:03:11.157Z,11.06
2018-09-28T01:04:11.076Z,11.08
2018-09-28T01:05:10.989Z,11.12
2018-09-28T01:06:10.943Z,11.12
2018-09-28T01:07:10.850Z,11.08
2018-09-28T01:08:10.755Z,11.08
2018-09-28T01:09:10.772Z,11.03
2018-09-28T01:10:10.595Z,11.06
2018-09-28T01:11:10.509Z,10.95
2018-09-28T01:12:11.458Z,10.94
2018-09-28T01:13:10.353Z,10.88
2018-09-28T01:14:10.265Z,10.98
2018-09-28T01:15:10.176Z,10.91
2018-09-28T01:17:52.178Z,10.88
2018-09-28T01:19:13.050Z,10.86
2018-09-28T01:19:51.984Z,10.84
2018-09-28T01:20:51.916Z,10.80
2018-09-28T01:21:51.822Z,10.84
2018-09-28T01:22:51.884Z,10.76
2018-09-28T01:23:51.658Z,10.69
2018-09-28T01:24:51.593Z,10.75
2018-09-28T01:25:51.494Z,10.60
2018-09-28T01:26:51.430Z,10.70
2018-09-28T01:27:51.343Z,10.73
2018-09-28T01:28:51.282Z,10.73
2018-09-28T01:29:51.160Z,10.63
2018-09-28T01:30:51.109Z,10.68
2018-09-28T01:46:13.717Z,10.54
2018-09-28T01:47:13.596Z,10.65
2018-09-28T01:48:13.555Z,10.63
2018-09-28T01:49:13.466Z,10.57
2018-09-28T01:50:13.359Z,10.60
2018-09-28T01:51:13.267Z,10.57
2018-09-28T01:52:13.200Z,10.60
2018-09-28T01:53:13.111Z,10.47
2018-09-28T01:54:13.050Z,10.51
2018-09-28T01:55:12.946Z,10.52
2018-09-28T01:56:12.866Z,10.36
2018-09-28T01:57:12.772Z,10.31
2018-09-28T01:58:12.739Z,10.25
2018-09-28T01:59:12.640Z,10.39
2018-09-28T02:00:12.573Z,10.29
2018-09-28T02:01:12.494Z,10.31
2018-09-28T02:02:12.395Z,10.26
2018-09-28T02:03:12.346Z,10.42
2018-09-28T02:04:12.262Z,10.26
2018-09-28T02:05:12.159Z,10.31
2018-09-28T02:06:12.071Z,10.26
2018-09-28T02:07:11.980Z,10.29
2018-09-28T02:08:11.901Z,10.22
2018-09-28T02:09:11.835Z,10.11
2018-09-28T02:10:11.734Z,10.10
2018-09-28T02:11:11.697Z,10.14
2018-09-28T02:12:11.591Z,10.06
2018-09-28T02:13:11.497Z,9.95
2018-09-28T02:14:11.549Z,10.04
2018-09-28T02:15:11.327Z,9.98
2018-09-28T02:16:11.278Z,10.01
2018-09-28T02:17:11.163Z,9.98
2018-09-28T02:18:11.076Z,10.14
2018-09-28T02:19:11.038Z,10.20
2018-09-28T02:20:10.934Z,10.22
2018-09-28T02:21:10.831Z,10.32
2018-09-28T02:22:10.772Z,10.29
2018-09-28T02:23:10.670Z,10.24
2018-09-28T02:24:10.626Z,10.18
2018-09-28T02:25:10.502Z,10.22
2018-09-28T02:26:10.421Z,10.24
2018-09-28T02:27:10.341Z,10.22
2018-09-28T02:28:10.269Z,10.26
2018-09-28T02:29:10.232Z,10.43
2018-09-28T02:31:52.172Z,10.32
2018-09-28T02:32:52.118Z,10.26
2018-09-28T02:33:52.014Z,10.20
2018-09-28T02:34:51.988Z,10.22
2018-09-28T02:35:51.840Z,10.26
2018-09-28T02:36:51.796Z,10.24
2018-09-28T02:37:51.703Z,10.24
2018-09-28T02:38:51.606Z,10.17
2018-09-28T02:39:51.528Z,10.02
2018-09-28T02:40:51.544Z,10.14
2018-09-28T02:41:51.346Z,10.11
2018-09-28T02:42:51.270Z,10.07
2018-09-28T02:43:51.196Z,10.04
2018-09-28T02:44:51.154Z,9.92
2018-09-28T02:45:51.031Z,9.95
2018-09-28T02:48:33.170Z,9.96
2018-09-28T02:51:15.193Z,9.95
2018-09-28T02:52:15.103Z,10.02
2018-09-28T02:53:15.030Z,10.07
2018-09-28T02:54:14.945Z,9.96
2018-09-28T02:55:14.850Z,9.99
2018-09-28T02:56:14.802Z,9.93
2018-09-28T02:57:14.688Z,10.01
2018-09-28T02:58:14.623Z,9.98
2018-09-28T02:59:14.514Z,9.95
2018-09-28T03:00:14.466Z,9.99
2018-09-28T03:01:14.381Z,9.91
2018-09-28T03:02:14.274Z,9.83
2018-09-28T03:03:14.190Z,9.78
2018-09-28T03:04:14.121Z,9.86
2018-09-28T03:05:14.053Z,9.81
2018-09-28T03:06:14.050Z,9.86
2018-09-28T03:07:13.860Z,9.89
2018-09-28T03:08:13.790Z,9.81
2018-09-28T03:09:13.714Z,9.81
2018-09-28T03:10:13.662Z,9.85
2018-09-28T03:11:13.570Z,9.81
2018-09-28T03:12:13.480Z,9.86
2018-09-28T03:13:13.374Z,9.75
2018-09-28T03:14:13.294Z,9.81
2018-09-28T03:15:13.216Z,9.86
2018-09-28T03:16:13.179Z,9.83
2018-09-28T03:19:37.032Z,9.75
2018-09-28T03:20:36.952Z,9.81
2018-09-28T03:21:37.972Z,9.86
2018-09-28T03:22:36.787Z,9.85
2018-09-28T03:23:36.700Z,9.83
2018-09-28T03:24:36.608Z,9.65
2018-09-28T03:27:18.721Z,9.68
2018-09-28T03:28:18.612Z,9.59
2018-09-28T03:29:18.512Z,9.60
2018-09-28T03:30:18.438Z,9.77
2018-09-28T03:31:18.384Z,9.73
2018-09-28T03:32:18.316Z,9.75
2018-09-28T03:33:18.201Z,9.77
2018-09-28T03:34:18.136Z,9.75
2018-09-28T03:35:18.069Z,9.70
2018-09-28T03:36:17.955Z,9.70
2018-09-28T03:37:17.885Z,9.78
2018-09-28T03:39:59.690Z,9.56
2018-09-28T03:40:59.622Z,9.62
2018-09-28T03:41:59.546Z,9.59
2018-09-28T03:42:59.483Z,9.59
2018-09-28T03:55:40.254Z,9.58
2018-09-28T03:56:40.230Z,9.62
2018-09-28T03:57:40.071Z,9.58
2018-09-28T03:58:40.018Z,9.60
2018-09-28T03:59:39.916Z,9.71
2018-09-28T04:00:39.829Z,9.59
2018-09-28T04:01:39.726Z,9.73
2018-09-28T04:02:39.648Z,9.77
2018-09-28T04:03:39.583Z,9.67
2018-09-28T04:04:39.479Z,9.68
2018-09-28T04:05:39.397Z,9.67
2018-09-28T04:06:39.326Z,9.71
2018-09-28T04:09:21.205Z,9.98
2018-09-28T04:10:21.096Z,9.89
2018-09-28T04:11:21.013Z,9.91
2018-09-28T04:12:20.945Z,9.81
2018-09-28T04:13:20.842Z,9.81
2018-09-28T04:14:20.851Z,9.74
2018-09-28T04:15:20.682Z,9.68
2018-09-28T04:16:20.619Z,9.68
2018-09-28T04:17:20.660Z,9.68
2018-09-28T04:18:20.462Z,9.81
2018-09-28T04:19:20.376Z,9.89
2018-09-28T04:20:20.381Z,9.99
2018-09-28T04:21:20.193Z,9.95
2018-09-28T04:24:02.203Z,10.18
2018-09-28T04:26:44.184Z,10.09
2018-09-28T04:27:44.094Z,10.01
2018-09-28T04:28:44.028Z,10.02
2018-09-28T04:29:43.971Z,9.99
2018-09-28T04:30:43.848Z,9.91
2018-09-28T04:31:43.779Z,9.86
2018-09-28T04:32:43.689Z,9.80
2018-09-28T04:33:43.610Z,9.74
2018-09-28T04:34:43.560Z,9.71
2018-09-28T04:35:43.437Z,9.70
2018-09-28T04:36:43.366Z,9.71
2018-09-28T04:37:43.368Z,9.59
2018-09-28T04:38:43.200Z,9.58
2018-09-28T04:39:43.134Z,9.56
2018-09-28T04:40:43.117Z,9.44
2018-09-28T04:41:42.965Z,9.53
2018-09-28T04:42:42.864Z,9.56
2018-09-28T04:43:42.804Z,9.56
2018-09-28T04:44:42.720Z,9.58
2018-09-28T04:45:42.703Z,9.53
2018-09-28T04:46:42.563Z,9.52
2018-09-28T04:47:42.479Z,9.59
2018-09-28T04:48:42.382Z,9.58
2018-09-28T04:49:42.320Z,9.60
2018-09-28T04:50:42.228Z,9.53
2018-09-28T04:51:42.137Z,9.59
2018-09-28T04:52:42.056Z,9.58
2018-09-28T04:55:24.209Z,9.60
2018-09-28T04:58:06.183Z,9.67
2018-09-28T04:59:06.114Z,9.67
2018-09-28T05:00:06.177Z,9.73
2018-09-28T05:02:48.203Z,9.71
2018-09-28T05:03:48.110Z,9.71
2018-09-28T05:04:48.050Z,9.67
2018-09-28T05:05:47.981Z,9.77
2018-09-28T05:23:45.698Z,10.36
2018-09-28T05:24:45.501Z,10.36
2018-09-28T05:25:45.595Z,10.44
2018-09-28T05:26:45.351Z,10.39
2018-09-28T05:27:45.404Z,10.42
2018-09-28T05:28:45.239Z,10.44
2018-09-28T05:29:45.172Z,10.44
2018-09-28T05:30:45.485Z,10.51
2018-09-28T05:31:45.105Z,10.47
2018-09-28T05:32:45.031Z,10.54
2018-09-28T05:33:44.892Z,10.65
2018-09-28T05:34:44.694Z,10.72
2018-09-28T05:35:44.610Z,10.65
2018-09-28T05:36:44.533Z,10.72
2018-09-28T05:37:44.451Z,10.75
2018-09-28T05:38:44.368Z,10.72
2018-09-28T05:39:44.290Z,10.76
2018-09-28T05:40:44.198Z,10.69
2018-09-28T05:41:45.195Z,10.80
2018-09-28T05:42:44.360Z,10.80
2018-09-28T05:45:26.211Z,10.88
2018-09-28T05:46:26.224Z,10.93
2018-09-28T05:47:26.049Z,10.93
2018-09-28T05:48:25.995Z,11.02
2018-09-28T05:49:25.886Z,10.93
2018-09-28T05:52:07.752Z,11.05
2018-09-28T05:54:32.206Z,11.12
2018-09-28T05:55:32.128Z,11.11
2018-09-28T05:56:32.049Z,11.20
2018-09-28T05:57:31.993Z,11.21
2018-09-28T05:58:31.908Z,11.21
2018-09-28T05:59:31.817Z,11.27
2018-09-28T06:00:31.714Z,11.24
2018-09-28T06:01:31.643Z,11.21
2018-09-28T06:02:31.597Z,11.20
2018-09-28T06:03:32.507Z,11.24
2018-09-28T06:04:31.385Z,11.39
2018-09-28T06:05:31.370Z,11.78
2018-09-28T06:06:31.224Z,12.03
2018-09-28T06:07:31.195Z,11.97
2018-09-28T06:09:55.719Z,12.01
2018-09-28T06:12:49.739Z,12.05
2018-09-28T06:13:49.691Z,12.04
2018-09-28T06:14:49.571Z,12.07
2018-09-28T06:17:31.716Z,12.59
2018-09-28T06:18:31.675Z,12.58
2018-09-28T06:19:31.592Z,12.73
2018-09-28T06:20:31.508Z,12.71
2018-09-28T06:21:31.399Z,12.81
2018-09-28T06:24:13.278Z,12.81
2018-09-28T06:25:13.138Z,12.69
2018-09-28T06:26:13.064Z,12.66
2018-09-28T06:27:12.980Z,12.63
2018-09-28T06:28:12.914Z,12.56
2018-09-28T06:29:12.847Z,12.55
2018-09-28T06:30:12.765Z,12.51
2018-09-28T06:32:54.712Z,12.43
2018-09-28T06:33:55.658Z,12.46
2018-09-28T06:34:54.555Z,12.41
2018-09-28T06:35:54.528Z,12.51
2018-09-28T06:36:54.402Z,12.43
2018-09-28T06:37:54.405Z,12.38
2018-09-28T06:38:54.271Z,12.40
2018-09-28T06:39:54.164Z,12.43
2018-09-28T06:40:54.197Z,12.44
2018-09-28T06:41:54.056Z,12.54
2018-09-28T06:42:53.914Z,12.41
2018-09-28T06:45:35.749Z,12.41
2018-09-28T06:46:35.648Z,12.38
2018-09-28T06:47:35.576Z,12.41
2018-09-28T06:48:35.501Z,12.44
2018-09-28T06:49:35.439Z,12.44
2018-09-28T06:50:35.363Z,12.49
2018-09-28T06:51:35.249Z,12.37
2018-09-28T06:52:35.157Z,12.41
2018-09-28T06:53:35.077Z,12.43
2018-09-28T06:54:35.018Z,12.40
2018-09-28T06:55:34.929Z,12.43
2018-09-28T06:56:34.854Z,12.36
2018-09-28T06:57:34.755Z,12.31
2018-09-28T06:58:34.715Z,12.33
2018-09-28T06:59:34.634Z,12.25
2018-09-28T07:00:34.525Z,12.37
2018-09-28T07:01:34.585Z,12.30
2018-09-28T07:03:59.260Z,12.30
2018-09-28T07:13:57.580Z,12.30
2018-09-28T07:14:57.504Z,12.25
2018-09-28T07:15:57.391Z,12.33
2018-09-28T07:16:57.317Z,12.30
2018-09-28T07:17:57.319Z,12.38
2018-09-28T07:20:39.238Z,12.37
2018-09-28T07:21:39.153Z,12.40
2018-09-28T07:22:39.240Z,12.51
2018-09-28T07:26:22.249Z,12.49
2018-09-28T07:27:22.143Z,12.44
2018-09-28T07:28:22.072Z,12.38
2018-09-28T07:29:22.025Z,12.36
2018-09-28T07:30:23.000Z,12.30
2018-09-28T07:31:21.821Z,12.36
2018-09-28T07:34:03.730Z,12.38
2018-09-28T07:35:03.689Z,12.43
2018-09-28T07:36:03.656Z,12.48
2018-09-28T07:37:03.570Z,12.48
2018-09-28T07:38:03.402Z,12.52
2018-09-28T07:39:03.326Z,12.56
2018-09-28T07:40:03.254Z,12.55
2018-09-28T07:41:03.158Z,12.59
2018-09-28T07:42:03.140Z,12.59
2018-09-28T07:44:45.231Z,12.69
2018-09-28T07:47:27.264Z,12.70
2018-09-28T07:48:27.178Z,12.71
2018-09-28T07:49:27.115Z,12.69
2018-09-28T07:50:26.992Z,12.79
2018-09-28T07:51:26.913Z,12.67
2018-09-28T07:52:27.089Z,12.80
2018-09-28T07:53:26.734Z,12.80
2018-09-28T07:56:08.777Z,12.79
2018-09-28T07:57:09.688Z,12.87
2018-09-28T07:58:08.557Z,12.84
2018-09-28T07:59:08.537Z,12.80
2018-09-28T08:00:08.410Z,12.87
2018-09-28T08:01:08.343Z,12.85
2018-09-28T08:02:08.269Z,12.84
2018-09-28T08:03:08.178Z,12.77
2018-09-28T08:04:08.089Z,12.80
2018-09-28T08:05:08.013Z,12.81
2018-09-28T08:06:07.950Z,12.87
2018-09-28T08:07:08.905Z,12.80
2018-09-28T08:08:07.781Z,12.81
2018-09-28T08:09:07.682Z,12.87
2018-09-28T08:10:07.605Z,12.94
2018-09-28T08:11:07.549Z,12.95
2018-09-28T08:12:07.438Z,13.01
2018-09-28T08:13:07.378Z,12.88
2018-09-28T08:14:07.280Z,12.92
2018-09-28T08:16:49.236Z,12.92
2018-09-28T08:17:49.189Z,12.95
2018-09-28T08:18:49.113Z,12.94
2018-09-28T08:19:49.007Z,13.10
2018-09-28T08:20:48.915Z,13.07
2018-09-28T08:21:48.833Z,13.10
2018-09-28T08:22:48.782Z,13.07
2018-09-28T08:23:48.699Z,13.13
2018-09-28T08:24:48.698Z,13.19
2018-09-28T08:25:48.623Z,13.22
2018-09-28T08:26:48.421Z,13.25
2018-09-28T08:27:48.378Z,13.36
2018-09-28T08:28:48.299Z,13.25
2018-09-28T08:29:48.182Z,13.25
2018-09-28T08:30:48.103Z,13.35
2018-09-28T08:33:30.263Z,13.35
2018-09-28T08:34:31.173Z,13.50
2018-09-28T08:35:30.148Z,13.35
2018-09-28T08:36:30.119Z,13.48
2018-09-28T08:37:29.927Z,13.53
2018-09-28T08:40:11.752Z,13.68
2018-09-28T08:41:11.672Z,13.79
2018-09-28T08:42:11.586Z,13.84
2018-09-28T08:44:53.766Z,13.93
2018-09-28T08:47:35.745Z,13.93
2018-09-28T08:50:17.761Z,14.17
2018-09-28T08:51:17.671Z,14.23
2018-09-28T08:52:17.576Z,14.27
2018-09-28T08:53:17.524Z,14.24
2018-09-28T08:54:17.443Z,14.34
2018-09-28T08:55:17.358Z,14.45
2018-09-28T08:56:17.265Z,14.44
2018-09-28T08:57:17.180Z,14.41
2018-09-28T08:58:17.099Z,14.46
2018-09-28T08:59:17.031Z,14.44
2018-09-28T09:00:16.953Z,14.42
2018-09-28T09:02:59.248Z,14.44
2018-09-28T09:05:41.279Z,14.48
2018-09-28T09:06:41.183Z,14.48
2018-09-28T09:07:41.084Z,14.39
2018-09-28T09:08:41.006Z,14.36
2018-09-28T09:09:40.917Z,14.38
2018-09-28T09:10:40.879Z,14.42
2018-09-28T09:11:40.773Z,14.41
2018-09-28T09:12:40.683Z,14.42
2018-09-28T09:13:40.594Z,14.39
2018-09-28T09:14:40.525Z,14.48
2018-09-28T09:15:40.523Z,14.39
2018-09-28T09:18:22.775Z,14.39
2018-09-28T09:21:04.971Z,14.52
2018-09-28T09:22:04.682Z,14.46
2018-09-28T09:23:04.586Z,14.52
2018-09-28T09:24:04.596Z,14.48
2018-09-28T09:25:04.465Z,14.49
2018-09-28T09:26:04.384Z,14.53
2018-09-28T09:27:04.263Z,14.64
2018-09-28T09:29:46.264Z,14.63
2018-09-28T09:30:47.208Z,14.64
2018-09-28T09:31:46.183Z,14.57
2018-09-28T09:32:46.018Z,14.60
2018-09-28T09:33:45.937Z,14.64
2018-09-28T09:34:45.973Z,14.69
2018-09-28T09:35:45.807Z,14.64
2018-09-28T09:36:45.727Z,14.64
2018-09-28T09:37:45.635Z,14.72
2018-09-28T09:40:27.798Z,14.69
2018-09-28T09:41:28.713Z,14.69
2018-09-28T09:42:27.607Z,14.48
2018-09-28T09:45:09.749Z,14.59
2018-09-28T09:46:09.684Z,14.61
2018-09-28T09:47:09.610Z,14.66
2018-09-28T09:49:51.770Z,14.67
2018-09-28T09:50:51.698Z,14.74
2018-09-28T09:51:51.617Z,14.66
2018-09-28T09:52:51.514Z,14.72
2018-09-28T09:53:51.438Z,14.75
2018-09-28T09:54:51.365Z,14.80
2018-09-28T09:55:51.282Z,14.90
2018-09-28T09:56:51.221Z,14.93
2018-09-28T09:57:51.188Z,14.91
2018-09-28T10:00:33.290Z,14.93
2018-09-28T10:01:33.187Z,15.07
2018-09-28T10:02:33.117Z,14.94
2018-09-28T10:03:33.024Z,14.95
2018-09-28T10:04:32.951Z,15.09
2018-09-28T10:05:32.871Z,15.09
2018-09-28T10:06:32.798Z,15.22
2018-09-28T10:07:32.738Z,15.18
2018-09-28T10:08:32.628Z,15.37
2018-09-28T10:09:32.624Z,15.43
2018-09-28T10:10:32.476Z,15.46
2018-09-28T10:11:32.377Z,15.48
2018-09-28T10:12:32.516Z,15.64
2018-09-28T10:13:32.315Z,15.48
2018-09-28T10:14:32.138Z,15.55
2018-09-28T10:15:32.077Z,15.55
2018-09-28T10:16:32.100Z,15.58
2018-09-28T10:17:31.930Z,15.56
2018-09-28T10:18:31.838Z,15.56
2018-09-28T10:19:31.760Z,15.60
2018-09-28T10:20:31.651Z,15.49
2018-09-28T10:21:31.567Z,15.59
2018-09-28T10:22:31.492Z,15.68
2018-09-28T10:23:31.466Z,15.52
2018-09-28T10:24:31.324Z,15.44
2018-09-28T10:25:31.261Z,15.49
2018-09-28T10:26:31.169Z,15.46
2018-09-28T10:27:31.113Z,15.49
2018-09-28T10:28:31.070Z,15.38
2018-09-28T10:29:30.934Z,15.38
2018-09-28T10:30:30.847Z,15.41
2018-09-28T10:31:30.784Z,15.35
2018-09-28T10:32:30.700Z,15.51
2018-09-28T10:33:30.749Z,15.38
2018-09-28T10:34:30.546Z,15.33
2018-09-28T10:35:30.467Z,15.35
2018-09-28T10:36:30.463Z,15.33
2018-09-28T10:37:30.305Z,15.25
2018-09-28T10:38:30.252Z,15.25
2018-09-28T10:39:30.175Z,15.34
2018-09-28T10:40:30.110Z,15.30
2018-09-28T10:43:12.275Z,15.31
2018-09-28T10:44:12.250Z,15.34
2018-09-28T10:45:12.183Z,15.33
2018-09-28T10:46:12.045Z,15.25
2018-09-28T10:47:11.956Z,15.22
2018-09-28T10:48:11.878Z,15.15
2018-09-28T10:49:11.819Z,15.16
2018-09-28T10:50:11.745Z,15.22
2018-09-28T10:51:11.672Z,15.30
2018-09-28T10:53:53.807Z,15.22
2018-09-28T10:54:53.742Z,15.37
2018-09-28T10:55:53.614Z,15.30
2018-09-28T10:58:35.852Z,15.40
2018-09-28T10:59:35.725Z,15.38
2018-09-28T11:00:35.634Z,15.40
2018-09-28T11:01:35.547Z,15.38
2018-09-28T11:02:35.465Z,15.41
2018-09-28T11:05:17.317Z,15.49
2018-09-28T11:06:17.214Z,15.38
2018-09-28T11:07:17.117Z,15.43
2018-09-28T11:08:17.282Z,15.43
2018-09-28T11:09:17.048Z,15.25
2018-09-28T11:11:58.828Z,15.15
2018-09-28T11:12:58.696Z,15.16
2018-09-28T11:13:58.620Z,15.16
2018-09-28T11:14:58.565Z,15.12
2018-09-28T11:15:58.463Z,15.03
2018-09-28T11:16:58.388Z,14.94
2018-09-28T11:17:58.304Z,15.01
2018-09-28T11:18:58.282Z,14.91
2018-09-28T11:19:58.196Z,14.82
2018-09-28T11:20:58.066Z,14.82
2018-09-28T11:21:57.978Z,14.71
2018-09-28T11:24:40.299Z,14.66
2018-09-28T11:25:41.305Z,14.72
2018-09-28T11:26:40.144Z,14.78
2018-09-28T11:29:22.287Z,14.75
2018-09-28T11:30:23.238Z,14.74
2018-09-28T11:31:22.130Z,14.75
2018-09-28T11:34:04.280Z,14.46
2018-09-28T11:35:04.212Z,14.45
2018-09-28T11:36:04.162Z,14.39
2018-09-28T11:37:04.071Z,14.19
2018-09-28T11:38:03.970Z,14.12
2018-09-28T11:39:03.889Z,14.05
2018-09-28T11:40:03.805Z,14.12
2018-09-28T11:41:03.749Z,13.94
2018-09-28T11:42:03.634Z,13.91
2018-09-28T11:43:03.669Z,13.94
2018-09-28T11:44:03.480Z,13.86
2018-09-28T11:46:45.969Z,13.99
2018-09-28T11:49:27.796Z,14.04
2018-09-28T11:50:27.880Z,14.05
2018-09-28T11:51:27.723Z,14.08
2018-09-28T11:52:27.586Z,14.05
2018-09-28T11:53:27.634Z,14.01
2018-09-28T11:54:27.407Z,14.06
2018-09-28T11:55:27.309Z,14.13
2018-09-28T11:56:27.265Z,14.08
2018-09-28T11:57:27.212Z,14.05
2018-09-28T11:58:27.072Z,14.06
2018-09-28T11:59:26.987Z,14.19
2018-09-28T12:02:09.312Z,14.21
2018-09-28T12:03:09.341Z,14.26
2018-09-28T12:04:09.127Z,14.34
2018-09-28T12:05:09.096Z,14.36
2018-09-28T12:06:09.187Z,14.42
2018-09-28T12:07:08.940Z,14.49
2018-09-28T12:08:08.811Z,14.60
2018-09-28T12:09:08.968Z,14.64
2018-09-28T12:10:08.659Z,14.72
2018-09-28T12:11:09.600Z,14.80
2018-09-28T12:12:08.507Z,14.97
2018-09-28T12:13:08.411Z,15.09
2018-09-28T12:14:08.321Z,15.19
2018-09-28T12:15:08.296Z,15.30
2018-09-28T12:16:08.185Z,15.34
2018-09-28T12:17:08.079Z,15.40
2018-09-28T12:18:08.030Z,15.34
2018-09-28T12:19:07.933Z,15.38
2018-09-28T12:20:07.838Z,15.40
2018-09-28T12:21:07.813Z,15.49
2018-09-28T12:22:07.692Z,15.52
2018-09-28T12:23:07.622Z,15.44
2018-09-28T12:24:07.554Z,15.55
2018-09-28T12:25:07.452Z,15.68
2018-09-28T12:26:07.395Z,15.74
2018-09-28T12:27:07.309Z,15.81
2018-09-28T12:28:07.245Z,15.92
2018-09-28T12:29:07.128Z,15.98
2018-09-28T12:30:07.066Z,16.07
2018-09-28T12:31:07.002Z,16.10
2018-09-28T12:32:06.906Z,16.13
2018-09-28T12:33:06.850Z,15.89
2018-09-28T12:34:06.727Z,15.68
2018-09-28T12:35:06.644Z,15.77
2018-09-28T12:36:06.584Z,15.78
2018-09-28T12:37:06.541Z,15.81
2018-09-28T12:38:06.390Z,15.98
2018-09-28T12:39:06.336Z,15.96
2018-09-28T12:40:06.315Z,16.01
2018-09-28T12:41:06.159Z,16.07
2018-09-28T12:42:06.106Z,16.07
2018-09-28T12:43:06.004Z,16.17
2018-09-28T12:44:05.994Z,16.36
2018-09-28T12:45:05.947Z,16.34
2018-09-28T12:46:05.764Z,16.07
2018-09-28T12:47:05.707Z,16.14
2018-09-28T12:48:05.593Z,16.08
2018-09-28T12:49:05.521Z,16.11
2018-09-28T12:50:05.434Z,16.11
2018-09-28T12:51:05.370Z,16.16
2018-09-28T12:52:05.295Z,16.11
2018-09-28T12:53:05.220Z,16.08
2018-09-28T12:54:05.119Z,16.11
2018-09-28T12:55:05.042Z,15.99
2018-09-28T12:56:04.965Z,15.77
2018-09-28T12:57:04.898Z,15.95
2018-09-28T12:58:04.825Z,15.93
2018-09-28T13:00:46.905Z,16.11
2018-09-28T13:01:46.747Z,16.08
2018-09-28T13:02:46.755Z,16.03
2018-09-28T13:03:46.602Z,15.93
2018-09-28T13:04:46.484Z,16.01
2018-09-28T13:05:46.489Z,16.03
2018-09-28T13:06:46.400Z,16.22
2018-09-28T13:07:46.294Z,16.08
2018-09-28T13:08:46.300Z,16.16
2018-09-28T13:09:46.089Z,16.17
2018-09-28T13:10:46.026Z,16.27
2018-09-28T13:11:45.959Z,16.14
2018-09-28T13:12:45.964Z,16.11
2018-09-28T13:13:45.826Z,16.33
2018-09-28T13:14:45.754Z,16.37
2018-09-28T13:15:47.625Z,16.44
2018-09-28T13:16:45.544Z,16.45
2018-09-28T13:19:27.843Z,16.59
2018-09-28T13:20:27.855Z,16.70
2018-09-28T13:21:27.719Z,16.69
2018-09-28T13:22:27.595Z,16.54
2018-09-28T13:23:27.512Z,16.44
2018-09-28T13:24:27.554Z,16.48
2018-09-28T13:25:27.339Z,16.57
2018-09-28T13:26:27.382Z,16.59
2018-09-28T13:27:27.171Z,16.66
2018-09-28T13:28:27.114Z,16.73
2018-09-28T13:29:27.058Z,16.82
2018-09-28T13:30:27.064Z,16.87
2018-09-28T13:31:26.871Z,16.90
2018-09-28T13:32:26.873Z,16.90
2018-09-28T13:33:26.729Z,16.90
2018-09-28T13:34:26.638Z,16.84
2018-09-28T13:35:26.529Z,16.90
2018-09-28T13:36:26.525Z,16.95
2018-09-28T13:37:26.374Z,16.90
2018-09-28T13:38:26.339Z,16.91
2018-09-28T13:39:26.239Z,16.95
2018-09-28T13:40:26.153Z,16.96
2018-09-28T13:41:26.083Z,17.14
2018-09-28T13:44:08.392Z,17.20
2018-09-28T13:45:08.265Z,16.84
2018-09-28T13:46:08.312Z,16.92
2018-09-28T13:47:08.091Z,17.00
2018-09-28T13:48:08.018Z,17.03
2018-09-28T13:49:07.951Z,17.05
2018-09-28T13:50:07.894Z,16.87
2018-09-28T13:51:07.773Z,16.84
2018-09-28T13:52:07.760Z,16.96
2018-09-28T13:53:07.620Z,16.88
2018-09-28T13:54:07.553Z,16.82
2018-09-28T13:55:08.482Z,16.82
2018-09-28T13:56:07.374Z,16.72
2018-09-28T13:57:07.278Z,16.73
2018-09-28T13:58:07.256Z,16.80
2018-09-28T13:59:07.144Z,16.87
2018-09-28T14:00:07.283Z,17.05
2018-09-28T14:01:07.994Z,17.07
2018-09-28T14:02:06.889Z,17.17
2018-09-28T14:03:06.958Z,17.30
2018-09-28T14:04:06.730Z,17.32
2018-09-28T14:05:06.662Z,17.39
2018-09-28T14:06:06.732Z,17.38
2018-09-28T14:07:06.634Z,17.39
2018-09-28T14:08:06.416Z,17.47
2018-09-28T14:09:06.335Z,17.60
2018-09-28T14:10:06.278Z,17.58
2018-09-28T14:11:07.215Z,17.57
2018-09-28T14:12:06.097Z,17.36
2018-09-28T14:13:06.025Z,17.32
2018-09-28T14:14:05.928Z,17.33
2018-09-28T14:15:05.869Z,17.24
2018-09-28T14:16:05.843Z,17.45
2018-09-28T14:18:47.905Z,17.36
2018-09-28T14:19:47.772Z,17.35
2018-09-28T14:20:47.781Z,17.39
2018-09-28T14:21:47.611Z,17.43
2018-09-28T14:22:47.618Z,17.54
2018-09-28T14:23:47.445Z,17.60
2018-09-28T14:24:47.415Z,17.47
2018-09-28T14:25:47.279Z,17.54
2018-09-28T14:26:47.311Z,17.49
2018-09-28T14:27:47.161Z,17.47
2018-09-28T14:28:47.100Z,17.40
2018-09-28T14:29:46.975Z,17.42
2018-09-28T14:30:46.975Z,17.42
2018-09-28T14:31:46.847Z,17.30
2018-09-28T14:32:46.838Z,17.18
2018-09-28T14:33:46.741Z,17.14
2018-09-28T14:34:46.688Z,17.14
2018-09-28T14:35:46.481Z,17.09
2018-09-28T14:36:46.481Z,17.09
2018-09-28T14:37:46.333Z,17.12
2018-09-28T14:38:46.267Z,17.15
2018-09-28T14:39:46.175Z,17.22
2018-09-28T14:40:46.160Z,17.38
2018-09-28T14:41:46.040Z,17.32
2018-09-28T14:47:18.381Z,17.42
2018-09-28T14:48:18.315Z,17.47
2018-09-28T14:49:18.219Z,17.43
2018-09-28T14:50:18.122Z,17.47
2018-09-28T14:51:18.029Z,17.51
2018-09-28T14:52:18.993Z,17.49
2018-09-28T14:53:17.853Z,17.49
2018-09-28T14:54:17.866Z,17.46
2018-09-28T14:55:17.696Z,17.30
2018-09-28T14:56:17.702Z,17.33
2018-09-28T14:57:17.585Z,17.28
2018-09-28T14:59:59.895Z,17.35
2018-09-28T15:00:59.978Z,17.20
2018-09-28T15:01:59.703Z,17.21
2018-09-28T15:02:59.708Z,17.20
2018-09-28T15:03:59.524Z,17.14
2018-09-28T15:06:41.399Z,17.17
2018-09-28T15:07:41.498Z,17.10
2018-09-28T15:08:41.276Z,17.09
2018-09-28T15:11:23.348Z,17.09
2018-09-28T15:12:44.416Z,17.20
2018-09-28T15:13:23.226Z,17.32
2018-09-28T15:16:05.374Z,17.12
2018-09-28T15:17:05.326Z,17.18
2018-09-28T15:18:05.230Z,17.12
2018-09-28T15:19:05.109Z,17.12
2018-09-28T15:20:05.032Z,17.12
2018-09-28T15:21:04.964Z,17.20
2018-09-28T15:22:04.876Z,17.35
2018-09-28T15:23:04.840Z,17.35
2018-09-28T15:24:04.745Z,17.42
2018-09-28T15:25:04.634Z,17.47
2018-09-28T15:26:04.554Z,17.62
2018-09-28T15:27:04.471Z,17.65
2018-09-28T15:28:04.459Z,17.70
2018-09-28T15:29:04.311Z,17.66
2018-09-28T15:30:04.356Z,17.71
2018-09-28T15:31:04.209Z,17.68
2018-09-28T15:32:04.078Z,17.74
2018-09-28T15:33:04.178Z,17.76
2018-09-28T15:34:03.931Z,17.77
2018-09-28T15:35:03.881Z,17.84
2018-09-28T15:36:03.739Z,17.87
2018-09-28T15:37:03.691Z,17.89
2018-09-28T15:38:03.594Z,17.95
2018-09-28T15:39:03.534Z,17.91
2018-09-28T15:40:03.416Z,17.89
2018-09-28T15:41:03.366Z,17.80
2018-09-28T15:42:03.276Z,17.66
2018-09-28T15:43:03.189Z,17.74
2018-09-28T15:44:03.138Z,17.58
2018-09-28T15:45:03.034Z,17.65
2018-09-28T15:46:02.943Z,17.66
2018-09-28T15:47:02.932Z,17.53
2018-09-28T15:48:02.804Z,17.47
2018-09-28T15:49:02.758Z,17.42
2018-09-28T15:50:02.707Z,17.35
2018-09-28T15:51:02.668Z,17.32
2018-09-28T15:52:02.494Z,17.24
2018-09-28T15:53:02.581Z,17.24
2018-09-28T15:54:02.343Z,17.15